sensor_id;sensor_type;location;lat;lon;timestamp;temperature;humidity
3752;DHT22;50827;47.014;7.652;2022-07-05T00:01:28;20.00;99.90
3752;DHT22;50827;47.014;7.652;2022-07-05T00:03:55;20.00;99.90
3752;DHT22;50827;47.014;7.652;2022-07-05T00:06:21;20.10;99.90
3752;DHT22;50827;47.014;7.652;2022-07-05T00:08:48;20.00;99.90
3752;DHT22;50827;47.014;7.652;2022-07-05T00:11:15;19.90;99.90
3752;DHT22;50827;47.014;7.652;2022-07-05T00:13:41;19.90;99.90
3752;DHT22;50827;47.014;7.652;2022-07-05T00:16:08;19.90;99.90
3752;DHT22;50827;47.014;7.652;2022-07-05T00:18:35;19.90;99.90
3752;DHT22;50827;47.014;7.652;2022-07-05T00:21:02;19.90;99.90
3752;DHT22;50827;47.014;7.652;2022-07-05T00:23:28;19.80;99.90
3752;DHT22;50827;47.014;7.652;2022-07-05T00:25:55;19.70;99.90
3752;DHT22;50827;47.014;7.652;2022-07-05T00:28:22;19.60;99.90
3752;DHT22;50827;47.014;7.652;2022-07-05T00:30:48;19.60;99.90
3752;DHT22;50827;47.014;7.652;2022-07-05T00:33:15;19.60;99.90
3752;DHT22;50827;47.014;7.652;2022-07-05T00:35:42;19.70;99.90
3752;DHT22;50827;47.014;7.652;2022-07-05T00:38:09;19.70;99.90
3752;DHT22;50827;47.014;7.652;2022-07-05T00:40:35;19.70;99.90
3752;DHT22;50827;47.014;7.652;2022-07-05T00:43:02;19.80;99.90
3752;DHT22;50827;47.014;7.652;2022-07-05T00:45:29;19.90;99.90
3752;DHT22;50827;47.014;7.652;2022-07-05T00:47:56;19.90;99.90
3752;DHT22;50827;47.014;7.652;2022-07-05T00:50:23;19.90;99.90
3752;DHT22;50827;47.014;7.652;2022-07-05T00:52:53;19.80;99.90
3752;DHT22;50827;47.014;7.652;2022-07-05T00:55:20;19.80;99.90
3752;DHT22;50827;47.014;7.652;2022-07-05T00:57:47;19.80;99.90
3752;DHT22;50827;47.014;7.652;2022-07-05T01:00:14;19.90;99.90
3752;DHT22;50827;47.014;7.652;2022-07-05T01:02:41;19.80;99.90
3752;DHT22;50827;47.014;7.652;2022-07-05T01:05:08;19.70;99.90
3752;DHT22;50827;47.014;7.652;2022-07-05T01:07:34;19.70;99.90
3752;DHT22;50827;47.014;7.652;2022-07-05T01:10:02;19.60;99.90
3752;DHT22;50827;47.014;7.652;2022-07-05T01:12:29;19.60;99.90
3752;DHT22;50827;47.014;7.652;2022-07-05T01:14:56;19.60;99.90
3752;DHT22;50827;47.014;7.652;2022-07-05T01:17:23;19.60;99.90
3752;DHT22;50827;47.014;7.652;2022-07-05T01:19:50;19.70;99.90
3752;DHT22;50827;47.014;7.652;2022-07-05T01:22:19;19.60;99.90
3752;DHT22;50827;47.014;7.652;2022-07-05T01:24:47;19.60;99.90
3752;DHT22;50827;47.014;7.652;2022-07-05T01:27:15;19.70;99.90
3752;DHT22;50827;47.014;7.652;2022-07-05T01:29:42;19.70;99.90
3752;DHT22;50827;47.014;7.652;2022-07-05T01:32:09;19.70;99.90
3752;DHT22;50827;47.014;7.652;2022-07-05T01:34:38;19.80;99.90
3752;DHT22;50827;47.014;7.652;2022-07-05T01:37:06;19.80;99.90
3752;DHT22;50827;47.014;7.652;2022-07-05T01:39:32;19.80;99.90
3752;DHT22;50827;47.014;7.652;2022-07-05T01:41:59;19.80;99.90
3752;DHT22;50827;47.014;7.652;2022-07-05T01:44:26;19.80;99.90
3752;DHT22;50827;47.014;7.652;2022-07-05T01:46:55;19.80;99.90
3752;DHT22;50827;47.014;7.652;2022-07-05T01:49:24;19.80;99.90
3752;DHT22;50827;47.014;7.652;2022-07-05T01:51:55;19.80;99.90
3752;DHT22;50827;47.014;7.652;2022-07-05T01:54:24;19.80;99.90
3752;DHT22;50827;47.014;7.652;2022-07-05T01:56:50;19.80;99.90
3752;DHT22;50827;47.014;7.652;2022-07-05T01:59:17;19.80;99.90
3752;DHT22;50827;47.014;7.652;2022-07-05T02:01:44;19.80;99.90
3752;DHT22;50827;47.014;7.652;2022-07-05T02:04:11;19.80;99.90
3752;DHT22;50827;47.014;7.652;2022-07-05T02:06:38;19.80;99.90
3752;DHT22;50827;47.014;7.652;2022-07-05T02:09:06;19.70;99.90
3752;DHT22;50827;47.014;7.652;2022-07-05T02:11:34;19.70;99.90
3752;DHT22;50827;47.014;7.652;2022-07-05T02:14:01;19.80;99.90
3752;DHT22;50827;47.014;7.652;2022-07-05T02:16:28;19.70;99.90
3752;DHT22;50827;47.014;7.652;2022-07-05T02:18:55;19.70;99.90
3752;DHT22;50827;47.014;7.652;2022-07-05T02:21:22;19.70;99.90
3752;DHT22;50827;47.014;7.652;2022-07-05T02:23:49;19.60;99.90
3752;DHT22;50827;47.014;7.652;2022-07-05T02:26:16;19.50;99.90
3752;DHT22;50827;47.014;7.652;2022-07-05T02:28:43;19.40;99.90
3752;DHT22;50827;47.014;7.652;2022-07-05T02:31:09;19.30;99.90
3752;DHT22;50827;47.014;7.652;2022-07-05T02:33:36;19.30;99.90
3752;DHT22;50827;47.014;7.652;2022-07-05T02:36:08;19.30;99.90
3752;DHT22;50827;47.014;7.652;2022-07-05T02:38:35;19.30;99.90
3752;DHT22;50827;47.014;7.652;2022-07-05T02:41:10;19.20;99.90
3752;DHT22;50827;47.014;7.652;2022-07-05T02:43:38;19.20;99.90
3752;DHT22;50827;47.014;7.652;2022-07-05T02:46:06;19.20;99.90
3752;DHT22;50827;47.014;7.652;2022-07-05T02:48:34;19.20;99.90
3752;DHT22;50827;47.014;7.652;2022-07-05T02:51:01;19.20;99.90
3752;DHT22;50827;47.014;7.652;2022-07-05T02:53:29;19.20;99.90
3752;DHT22;50827;47.014;7.652;2022-07-05T02:55:56;19.20;99.90
3752;DHT22;50827;47.014;7.652;2022-07-05T02:58:22;19.20;99.90
3752;DHT22;50827;47.014;7.652;2022-07-05T03:00:49;19.20;99.90
3752;DHT22;50827;47.014;7.652;2022-07-05T03:03:16;19.20;99.90
3752;DHT22;50827;47.014;7.652;2022-07-05T03:05:43;19.20;99.90
3752;DHT22;50827;47.014;7.652;2022-07-05T03:08:10;19.20;99.90
3752;DHT22;50827;47.014;7.652;2022-07-05T03:10:36;19.10;99.90
3752;DHT22;50827;47.014;7.652;2022-07-05T03:13:04;19.10;99.90
3752;DHT22;50827;47.014;7.652;2022-07-05T03:15:31;19.10;99.90
3752;DHT22;50827;47.014;7.652;2022-07-05T03:17:58;19.10;99.90
3752;DHT22;50827;47.014;7.652;2022-07-05T03:20:25;19.10;99.90
3752;DHT22;50827;47.014;7.652;2022-07-05T03:22:51;19.10;99.90
3752;DHT22;50827;47.014;7.652;2022-07-05T03:25:18;18.90;99.90
3752;DHT22;50827;47.014;7.652;2022-07-05T03:27:45;18.90;99.90
3752;DHT22;50827;47.014;7.652;2022-07-05T03:30:12;18.80;99.90
3752;DHT22;50827;47.014;7.652;2022-07-05T03:32:39;18.80;99.90
3752;DHT22;50827;47.014;7.652;2022-07-05T03:35:06;18.90;99.90
3752;DHT22;50827;47.014;7.652;2022-07-05T03:37:33;18.80;99.90
3752;DHT22;50827;47.014;7.652;2022-07-05T03:40:00;18.90;99.90
3752;DHT22;50827;47.014;7.652;2022-07-05T03:42:27;18.90;99.90
3752;DHT22;50827;47.014;7.652;2022-07-05T03:44:54;18.90;99.90
3752;DHT22;50827;47.014;7.652;2022-07-05T03:47:21;18.90;99.90
3752;DHT22;50827;47.014;7.652;2022-07-05T03:49:47;18.80;99.90
3752;DHT22;50827;47.014;7.652;2022-07-05T03:52:14;18.70;99.90
3752;DHT22;50827;47.014;7.652;2022-07-05T03:54:41;18.80;99.90
3752;DHT22;50827;47.014;7.652;2022-07-05T03:57:12;18.80;99.90
3752;DHT22;50827;47.014;7.652;2022-07-05T03:59:40;18.80;99.90
3752;DHT22;50827;47.014;7.652;2022-07-05T04:02:07;18.80;99.90
3752;DHT22;50827;47.014;7.652;2022-07-05T04:04:34;18.70;99.90
3752;DHT22;50827;47.014;7.652;2022-07-05T04:07:00;18.60;99.90
3752;DHT22;50827;47.014;7.652;2022-07-05T04:09:27;18.60;99.90
3752;DHT22;50827;47.014;7.652;2022-07-05T04:11:54;18.50;99.90
3752;DHT22;50827;47.014;7.652;2022-07-05T04:14:21;18.60;99.90
3752;DHT22;50827;47.014;7.652;2022-07-05T04:16:47;18.60;99.90
3752;DHT22;50827;47.014;7.652;2022-07-05T04:19:14;18.50;99.90
3752;DHT22;50827;47.014;7.652;2022-07-05T04:21:40;18.60;99.90
3752;DHT22;50827;47.014;7.652;2022-07-05T04:24:07;18.50;99.90
3752;DHT22;50827;47.014;7.652;2022-07-05T04:26:35;18.40;99.90
3752;DHT22;50827;47.014;7.652;2022-07-05T04:29:01;18.40;99.90
3752;DHT22;50827;47.014;7.652;2022-07-05T04:31:28;18.40;99.90
3752;DHT22;50827;47.014;7.652;2022-07-05T04:33:55;18.50;99.90
3752;DHT22;50827;47.014;7.652;2022-07-05T04:36:21;18.40;99.90
3752;DHT22;50827;47.014;7.652;2022-07-05T04:38:48;18.40;99.90
3752;DHT22;50827;47.014;7.652;2022-07-05T04:41:15;18.40;99.90
3752;DHT22;50827;47.014;7.652;2022-07-05T04:43:41;18.50;99.90
3752;DHT22;50827;47.014;7.652;2022-07-05T04:46:08;18.50;99.90
3752;DHT22;50827;47.014;7.652;2022-07-05T04:48:35;18.60;99.90
3752;DHT22;50827;47.014;7.652;2022-07-05T04:51:01;18.60;99.90
3752;DHT22;50827;47.014;7.652;2022-07-05T04:53:28;18.60;99.90
3752;DHT22;50827;47.014;7.652;2022-07-05T04:55:55;18.60;99.90
3752;DHT22;50827;47.014;7.652;2022-07-05T04:58:22;18.60;99.90
3752;DHT22;50827;47.014;7.652;2022-07-05T05:00:48;18.70;99.90
3752;DHT22;50827;47.014;7.652;2022-07-05T05:03:15;18.80;99.90
3752;DHT22;50827;47.014;7.652;2022-07-05T05:05:42;18.80;99.90
3752;DHT22;50827;47.014;7.652;2022-07-05T05:08:08;18.90;99.90
3752;DHT22;50827;47.014;7.652;2022-07-05T05:10:35;19.00;99.90
3752;DHT22;50827;47.014;7.652;2022-07-05T05:13:02;19.00;99.90
3752;DHT22;50827;47.014;7.652;2022-07-05T05:15:28;19.00;99.90
3752;DHT22;50827;47.014;7.652;2022-07-05T05:17:55;19.10;99.90
3752;DHT22;50827;47.014;7.652;2022-07-05T05:20:22;19.10;99.90
3752;DHT22;50827;47.014;7.652;2022-07-05T05:22:49;19.10;99.90
3752;DHT22;50827;47.014;7.652;2022-07-05T05:25:15;19.10;99.90
3752;DHT22;50827;47.014;7.652;2022-07-05T05:27:48;19.20;99.90
3752;DHT22;50827;47.014;7.652;2022-07-05T05:30:18;19.30;99.90
3752;DHT22;50827;47.014;7.652;2022-07-05T05:32:46;19.40;99.90
3752;DHT22;50827;47.014;7.652;2022-07-05T05:35:13;19.40;99.90
3752;DHT22;50827;47.014;7.652;2022-07-05T05:37:48;19.40;99.90
3752;DHT22;50827;47.014;7.652;2022-07-05T05:40:15;19.50;99.90
3752;DHT22;50827;47.014;7.652;2022-07-05T05:42:42;19.60;99.90
3752;DHT22;50827;47.014;7.652;2022-07-05T05:45:09;19.70;99.90
3752;DHT22;50827;47.014;7.652;2022-07-05T05:48:02;19.60;99.90
3752;DHT22;50827;47.014;7.652;2022-07-05T05:50:34;19.60;99.90
3752;DHT22;50827;47.014;7.652;2022-07-05T05:53:02;19.60;99.90
3752;DHT22;50827;47.014;7.652;2022-07-05T05:55:30;19.60;99.90
3752;DHT22;50827;47.014;7.652;2022-07-05T05:58:09;19.60;99.90
3752;DHT22;50827;47.014;7.652;2022-07-05T06:00:36;19.70;99.90
3752;DHT22;50827;47.014;7.652;2022-07-05T06:03:03;19.70;99.90
3752;DHT22;50827;47.014;7.652;2022-07-05T06:05:29;19.70;99.90
3752;DHT22;50827;47.014;7.652;2022-07-05T06:07:56;19.70;99.90
3752;DHT22;50827;47.014;7.652;2022-07-05T06:10:25;19.80;99.90
3752;DHT22;50827;47.014;7.652;2022-07-05T06:12:53;19.90;99.90
3752;DHT22;50827;47.014;7.652;2022-07-05T06:15:20;20.00;99.90
3752;DHT22;50827;47.014;7.652;2022-07-05T06:17:47;20.00;99.90
3752;DHT22;50827;47.014;7.652;2022-07-05T06:20:20;20.20;99.90
3752;DHT22;50827;47.014;7.652;2022-07-05T06:22:47;20.10;99.90
3752;DHT22;50827;47.014;7.652;2022-07-05T06:25:15;20.10;99.90
3752;DHT22;50827;47.014;7.652;2022-07-05T06:27:54;20.20;99.90
3752;DHT22;50827;47.014;7.652;2022-07-05T06:30:24;20.20;99.90
3752;DHT22;50827;47.014;7.652;2022-07-05T06:32:51;20.30;99.90
3752;DHT22;50827;47.014;7.652;2022-07-05T06:35:18;20.30;99.90
3752;DHT22;50827;47.014;7.652;2022-07-05T06:38:05;20.30;99.90
3752;DHT22;50827;47.014;7.652;2022-07-05T06:40:39;20.20;99.90
3752;DHT22;50827;47.014;7.652;2022-07-05T06:43:10;20.30;99.90
3752;DHT22;50827;47.014;7.652;2022-07-05T06:45:37;20.40;99.90
3752;DHT22;50827;47.014;7.652;2022-07-05T06:48:05;20.50;99.90
3752;DHT22;50827;47.014;7.652;2022-07-05T06:50:35;20.50;99.90
3752;DHT22;50827;47.014;7.652;2022-07-05T06:53:05;20.50;99.90
3752;DHT22;50827;47.014;7.652;2022-07-05T06:55:32;20.50;99.90
3752;DHT22;50827;47.014;7.652;2022-07-05T06:58:05;20.50;99.90
3752;DHT22;50827;47.014;7.652;2022-07-05T07:00:40;20.60;99.90
3752;DHT22;50827;47.014;7.652;2022-07-05T07:03:27;20.60;99.90
3752;DHT22;50827;47.014;7.652;2022-07-05T07:06:14;20.70;99.90
3752;DHT22;50827;47.014;7.652;2022-07-05T07:08:42;20.70;99.90
3752;DHT22;50827;47.014;7.652;2022-07-05T07:11:27;20.80;99.90
3752;DHT22;50827;47.014;7.652;2022-07-05T07:13:54;20.90;99.90
3752;DHT22;50827;47.014;7.652;2022-07-05T07:16:21;20.90;99.90
3752;DHT22;50827;47.014;7.652;2022-07-05T07:18:48;20.90;99.90
3752;DHT22;50827;47.014;7.652;2022-07-05T07:21:34;20.90;99.90
3752;DHT22;50827;47.014;7.652;2022-07-05T07:24:01;21.00;99.90
3752;DHT22;50827;47.014;7.652;2022-07-05T07:26:28;21.00;99.90
3752;DHT22;50827;47.014;7.652;2022-07-05T07:28:55;21.00;99.90
3752;DHT22;50827;47.014;7.652;2022-07-05T07:31:21;21.10;99.90
3752;DHT22;50827;47.014;7.652;2022-07-05T07:33:48;21.10;99.90
3752;DHT22;50827;47.014;7.652;2022-07-05T07:36:15;21.20;99.90
3752;DHT22;50827;47.014;7.652;2022-07-05T07:38:42;21.10;99.90
3752;DHT22;50827;47.014;7.652;2022-07-05T07:41:09;21.20;99.90
3752;DHT22;50827;47.014;7.652;2022-07-05T07:43:35;21.30;99.90
3752;DHT22;50827;47.014;7.652;2022-07-05T07:46:02;21.30;99.90
3752;DHT22;50827;47.014;7.652;2022-07-05T07:48:29;21.40;99.90
3752;DHT22;50827;47.014;7.652;2022-07-05T07:50:56;21.40;99.90
3752;DHT22;50827;47.014;7.652;2022-07-05T07:53:23;21.40;99.90
3752;DHT22;50827;47.014;7.652;2022-07-05T07:55:50;21.50;99.90
3752;DHT22;50827;47.014;7.652;2022-07-05T07:58:16;21.50;99.90
3752;DHT22;50827;47.014;7.652;2022-07-05T08:00:43;21.50;99.90
3752;DHT22;50827;47.014;7.652;2022-07-05T08:03:10;21.50;99.90
3752;DHT22;50827;47.014;7.652;2022-07-05T08:05:38;21.50;99.90
3752;DHT22;50827;47.014;7.652;2022-07-05T08:08:05;21.60;99.90
3752;DHT22;50827;47.014;7.652;2022-07-05T08:10:32;21.60;99.90
3752;DHT22;50827;47.014;7.652;2022-07-05T08:12:58;21.60;99.90
3752;DHT22;50827;47.014;7.652;2022-07-05T08:15:25;21.70;99.90
3752;DHT22;50827;47.014;7.652;2022-07-05T08:17:51;21.70;99.90
3752;DHT22;50827;47.014;7.652;2022-07-05T08:20:37;21.70;99.90
3752;DHT22;50827;47.014;7.652;2022-07-05T08:23:22;21.80;99.90
3752;DHT22;50827;47.014;7.652;2022-07-05T08:25:57;21.90;99.90
3752;DHT22;50827;47.014;7.652;2022-07-05T08:28:23;21.90;99.90
3752;DHT22;50827;47.014;7.652;2022-07-05T08:30:52;21.90;99.90
3752;DHT22;50827;47.014;7.652;2022-07-05T08:33:19;21.90;99.90
3752;DHT22;50827;47.014;7.652;2022-07-05T08:35:45;22.00;99.90
3752;DHT22;50827;47.014;7.652;2022-07-05T08:38:12;22.00;99.90
3752;DHT22;50827;47.014;7.652;2022-07-05T08:40:47;22.10;99.90
3752;DHT22;50827;47.014;7.652;2022-07-05T08:43:16;22.10;99.90
3752;DHT22;50827;47.014;7.652;2022-07-05T08:45:44;22.20;99.90
3752;DHT22;50827;47.014;7.652;2022-07-05T08:48:11;22.20;99.90
3752;DHT22;50827;47.014;7.652;2022-07-05T08:50:39;22.20;99.90
3752;DHT22;50827;47.014;7.652;2022-07-05T08:53:07;22.20;99.90
3752;DHT22;50827;47.014;7.652;2022-07-05T08:55:33;22.30;99.90
3752;DHT22;50827;47.014;7.652;2022-07-05T08:58:00;22.30;99.90
3752;DHT22;50827;47.014;7.652;2022-07-05T09:00:28;22.40;99.90
3752;DHT22;50827;47.014;7.652;2022-07-05T09:02:55;22.40;99.90
3752;DHT22;50827;47.014;7.652;2022-07-05T09:05:24;22.40;99.90
3752;DHT22;50827;47.014;7.652;2022-07-05T09:07:59;22.40;99.90
3752;DHT22;50827;47.014;7.652;2022-07-05T09:10:29;22.40;99.90
3752;DHT22;50827;47.014;7.652;2022-07-05T09:12:57;22.50;99.90
3752;DHT22;50827;47.014;7.652;2022-07-05T09:15:24;22.50;99.90
3752;DHT22;50827;47.014;7.652;2022-07-05T09:17:51;22.50;99.90
3752;DHT22;50827;47.014;7.652;2022-07-05T09:20:19;22.50;99.90
3752;DHT22;50827;47.014;7.652;2022-07-05T09:22:51;22.60;99.90
3752;DHT22;50827;47.014;7.652;2022-07-05T09:25:28;22.50;99.90
3752;DHT22;50827;47.014;7.652;2022-07-05T09:28:03;22.60;99.90
3752;DHT22;50827;47.014;7.652;2022-07-05T09:30:32;22.50;99.90
3752;DHT22;50827;47.014;7.652;2022-07-05T09:35:32;22.50;99.90
3752;DHT22;50827;47.014;7.652;2022-07-05T09:37:59;22.50;99.90
3752;DHT22;50827;47.014;7.652;2022-07-05T09:40:31;22.50;99.90
3752;DHT22;50827;47.014;7.652;2022-07-05T09:43:18;22.60;99.90
3752;DHT22;50827;47.014;7.652;2022-07-05T09:46:05;22.70;99.90
3752;DHT22;50827;47.014;7.652;2022-07-05T09:48:33;22.60;99.90
3752;DHT22;50827;47.014;7.652;2022-07-05T09:51:10;22.50;99.90
3752;DHT22;50827;47.014;7.652;2022-07-05T09:53:58;22.50;99.90
3752;DHT22;50827;47.014;7.652;2022-07-05T09:56:28;22.60;99.90
3752;DHT22;50827;47.014;7.652;2022-07-05T09:59:12;22.50;99.90
3752;DHT22;50827;47.014;7.652;2022-07-05T10:01:40;22.70;99.90
3752;DHT22;50827;47.014;7.652;2022-07-05T10:04:08;22.70;99.90
3752;DHT22;50827;47.014;7.652;2022-07-05T10:06:35;22.80;99.90
3752;DHT22;50827;47.014;7.652;2022-07-05T10:09:04;22.80;99.90
3752;DHT22;50827;47.014;7.652;2022-07-05T10:11:31;22.90;99.90
3752;DHT22;50827;47.014;7.652;2022-07-05T10:13:58;23.00;99.90
3752;DHT22;50827;47.014;7.652;2022-07-05T10:16:25;23.10;99.90
3752;DHT22;50827;47.014;7.652;2022-07-05T10:18:56;23.10;99.90
3752;DHT22;50827;47.014;7.652;2022-07-05T10:21:24;23.10;99.90
3752;DHT22;50827;47.014;7.652;2022-07-05T10:23:52;23.20;99.90
3752;DHT22;50827;47.014;7.652;2022-07-05T10:26:24;23.20;99.90
3752;DHT22;50827;47.014;7.652;2022-07-05T10:28:52;23.20;99.90
3752;DHT22;50827;47.014;7.652;2022-07-05T10:31:28;23.10;99.90
3752;DHT22;50827;47.014;7.652;2022-07-05T10:33:56;23.20;99.90
3752;DHT22;50827;47.014;7.652;2022-07-05T10:36:25;23.30;99.90
3752;DHT22;50827;47.014;7.652;2022-07-05T10:38:53;23.40;99.90
3752;DHT22;50827;47.014;7.652;2022-07-05T10:41:23;23.50;99.90
3752;DHT22;50827;47.014;7.652;2022-07-05T10:43:56;23.60;99.90
3752;DHT22;50827;47.014;7.652;2022-07-05T10:46:36;23.70;99.90
3752;DHT22;50827;47.014;7.652;2022-07-05T10:49:11;23.70;99.90
3752;DHT22;50827;47.014;7.652;2022-07-05T10:51:38;23.70;99.90
3752;DHT22;50827;47.014;7.652;2022-07-05T10:54:05;23.80;99.90
3752;DHT22;50827;47.014;7.652;2022-07-05T10:56:32;23.80;99.90
3752;DHT22;50827;47.014;7.652;2022-07-05T10:59:09;23.90;99.90
3752;DHT22;50827;47.014;7.652;2022-07-05T11:01:39;23.90;99.90
3752;DHT22;50827;47.014;7.652;2022-07-05T11:04:12;24.00;99.90
3752;DHT22;50827;47.014;7.652;2022-07-05T11:06:43;24.00;99.90
3752;DHT22;50827;47.014;7.652;2022-07-05T11:14:38;24.00;99.90
3752;DHT22;50827;47.014;7.652;2022-07-05T11:19:58;24.00;99.90
3752;DHT22;50827;47.014;7.652;2022-07-05T11:22:25;24.00;99.90
3752;DHT22;50827;47.014;7.652;2022-07-05T11:24:52;24.10;99.90
3752;DHT22;50827;47.014;7.652;2022-07-05T11:27:19;24.10;99.90
3752;DHT22;50827;47.014;7.652;2022-07-05T11:34:47;23.90;99.90
3752;DHT22;50827;47.014;7.652;2022-07-05T11:42:33;23.80;99.90
3752;DHT22;50827;47.014;7.652;2022-07-05T11:45:08;23.80;99.90
3752;DHT22;50827;47.014;7.652;2022-07-05T11:47:35;23.90;99.90
3752;DHT22;50827;47.014;7.652;2022-07-05T11:50:09;24.10;99.90
3752;DHT22;50827;47.014;7.652;2022-07-05T11:52:38;24.20;99.90
3752;DHT22;50827;47.014;7.652;2022-07-05T11:55:11;24.30;99.90
3752;DHT22;50827;47.014;7.652;2022-07-05T11:57:48;24.30;99.90
3752;DHT22;50827;47.014;7.652;2022-07-05T12:00:33;24.40;99.90
3752;DHT22;50827;47.014;7.652;2022-07-05T12:03:11;24.50;99.90
3752;DHT22;50827;47.014;7.652;2022-07-05T12:05:38;24.60;99.90
3752;DHT22;50827;47.014;7.652;2022-07-05T12:08:08;24.60;99.90
3752;DHT22;50827;47.014;7.652;2022-07-05T12:10:37;24.60;99.90
3752;DHT22;50827;47.014;7.652;2022-07-05T12:13:48;24.70;99.90
3752;DHT22;50827;47.014;7.652;2022-07-05T12:16:15;24.80;99.90
3752;DHT22;50827;47.014;7.652;2022-07-05T12:18:56;25.00;99.90
3752;DHT22;50827;47.014;7.652;2022-07-05T12:21:23;25.00;99.90
3752;DHT22;50827;47.014;7.652;2022-07-05T12:23:51;24.90;99.90
3752;DHT22;50827;47.014;7.652;2022-07-05T12:26:19;24.80;99.90
3752;DHT22;50827;47.014;7.652;2022-07-05T12:28:47;24.70;99.90
3752;DHT22;50827;47.014;7.652;2022-07-05T12:31:19;24.60;99.90
3752;DHT22;50827;47.014;7.652;2022-07-05T12:33:46;24.60;99.90
3752;DHT22;50827;47.014;7.652;2022-07-05T12:36:14;24.70;99.90
3752;DHT22;50827;47.014;7.652;2022-07-05T12:38:42;24.80;99.90
3752;DHT22;50827;47.014;7.652;2022-07-05T12:41:09;24.90;99.90
3752;DHT22;50827;47.014;7.652;2022-07-05T12:43:53;25.00;99.90
3752;DHT22;50827;47.014;7.652;2022-07-05T12:46:34;25.20;99.90
3752;DHT22;50827;47.014;7.652;2022-07-05T12:49:09;25.20;99.90
3752;DHT22;50827;47.014;7.652;2022-07-05T12:51:39;25.30;99.90
3752;DHT22;50827;47.014;7.652;2022-07-05T12:54:07;25.40;99.90
3752;DHT22;50827;47.014;7.652;2022-07-05T12:56:53;25.40;99.90
3752;DHT22;50827;47.014;7.652;2022-07-05T12:59:59;25.30;99.90
3752;DHT22;50827;47.014;7.652;2022-07-05T13:02:44;25.30;99.90
3752;DHT22;50827;47.014;7.652;2022-07-05T13:05:23;25.20;99.90
3752;DHT22;50827;47.014;7.652;2022-07-05T13:07:52;25.40;99.90
3752;DHT22;50827;47.014;7.652;2022-07-05T13:10:24;25.50;99.90
3752;DHT22;50827;47.014;7.652;2022-07-05T13:12:52;25.50;99.90
3752;DHT22;50827;47.014;7.652;2022-07-05T13:15:19;25.60;99.90
3752;DHT22;50827;47.014;7.652;2022-07-05T13:17:47;25.60;99.90
3752;DHT22;50827;47.014;7.652;2022-07-05T13:20:16;25.60;99.90
3752;DHT22;50827;47.014;7.652;2022-07-05T13:22:45;25.60;99.90
3752;DHT22;50827;47.014;7.652;2022-07-05T13:25:12;25.70;99.90
3752;DHT22;50827;47.014;7.652;2022-07-05T13:27:39;25.70;99.90
3752;DHT22;50827;47.014;7.652;2022-07-05T13:30:06;25.70;99.90
3752;DHT22;50827;47.014;7.652;2022-07-05T13:32:33;25.70;99.90
3752;DHT22;50827;47.014;7.652;2022-07-05T13:35:00;25.70;99.90
3752;DHT22;50827;47.014;7.652;2022-07-05T13:37:27;25.80;99.90
3752;DHT22;50827;47.014;7.652;2022-07-05T13:39:53;25.80;99.90
3752;DHT22;50827;47.014;7.652;2022-07-05T13:42:20;25.90;99.90
3752;DHT22;50827;47.014;7.652;2022-07-05T13:44:47;25.90;99.90
3752;DHT22;50827;47.014;7.652;2022-07-05T13:47:13;25.90;99.90
3752;DHT22;50827;47.014;7.652;2022-07-05T13:49:40;26.10;99.90
3752;DHT22;50827;47.014;7.652;2022-07-05T13:52:09;26.00;99.90
3752;DHT22;50827;47.014;7.652;2022-07-05T13:54:35;26.00;99.90
3752;DHT22;50827;47.014;7.652;2022-07-05T13:57:03;26.10;99.90
3752;DHT22;50827;47.014;7.652;2022-07-05T13:59:30;26.10;99.90
3752;DHT22;50827;47.014;7.652;2022-07-05T14:01:56;26.10;99.90
3752;DHT22;50827;47.014;7.652;2022-07-05T14:04:24;26.10;99.90
3752;DHT22;50827;47.014;7.652;2022-07-05T14:06:54;26.20;99.90
3752;DHT22;50827;47.014;7.652;2022-07-05T14:09:21;26.00;99.90
3752;DHT22;50827;47.014;7.652;2022-07-05T14:11:54;26.20;99.90
3752;DHT22;50827;47.014;7.652;2022-07-05T14:14:20;26.10;99.90
3752;DHT22;50827;47.014;7.652;2022-07-05T14:16:47;26.10;99.90
3752;DHT22;50827;47.014;7.652;2022-07-05T14:19:14;26.20;99.90
3752;DHT22;50827;47.014;7.652;2022-07-05T14:21:41;26.20;99.90
3752;DHT22;50827;47.014;7.652;2022-07-05T14:24:11;26.30;99.90
3752;DHT22;50827;47.014;7.652;2022-07-05T14:26:38;26.20;99.90
3752;DHT22;50827;47.014;7.652;2022-07-05T14:29:07;26.10;99.90
3752;DHT22;50827;47.014;7.652;2022-07-05T14:31:34;26.00;99.90
3752;DHT22;50827;47.014;7.652;2022-07-05T14:34:01;26.10;99.90
3752;DHT22;50827;47.014;7.652;2022-07-05T14:36:27;26.10;99.90
3752;DHT22;50827;47.014;7.652;2022-07-05T14:38:55;26.10;99.90
3752;DHT22;50827;47.014;7.652;2022-07-05T14:41:22;26.20;99.90
3752;DHT22;50827;47.014;7.652;2022-07-05T14:43:49;26.20;99.90
3752;DHT22;50827;47.014;7.652;2022-07-05T14:46:16;26.20;99.90
3752;DHT22;50827;47.014;7.652;2022-07-05T14:48:45;26.20;99.90
3752;DHT22;50827;47.014;7.652;2022-07-05T14:51:13;26.30;99.90
3752;DHT22;50827;47.014;7.652;2022-07-05T14:53:40;26.30;99.90
3752;DHT22;50827;47.014;7.652;2022-07-05T14:56:13;26.30;99.90
3752;DHT22;50827;47.014;7.652;2022-07-05T14:58:40;26.30;99.90
3752;DHT22;50827;47.014;7.652;2022-07-05T15:01:07;26.30;99.90
3752;DHT22;50827;47.014;7.652;2022-07-05T15:03:34;26.40;99.90
3752;DHT22;50827;47.014;7.652;2022-07-05T15:06:01;26.40;99.90
3752;DHT22;50827;47.014;7.652;2022-07-05T15:08:30;26.40;99.90
3752;DHT22;50827;47.014;7.652;2022-07-05T15:10:57;26.40;99.90
3752;DHT22;50827;47.014;7.652;2022-07-05T15:13:24;26.50;99.90
3752;DHT22;50827;47.014;7.652;2022-07-05T15:15:52;26.50;99.90
3752;DHT22;50827;47.014;7.652;2022-07-05T15:18:19;26.50;99.90
3752;DHT22;50827;47.014;7.652;2022-07-05T15:20:46;26.50;99.90
3752;DHT22;50827;47.014;7.652;2022-07-05T15:23:13;26.50;99.90
3752;DHT22;50827;47.014;7.652;2022-07-05T15:25:40;26.50;99.90
3752;DHT22;50827;47.014;7.652;2022-07-05T15:28:07;26.60;99.90
3752;DHT22;50827;47.014;7.652;2022-07-05T15:30:37;26.60;99.90
3752;DHT22;50827;47.014;7.652;2022-07-05T15:33:04;26.40;99.90
3752;DHT22;50827;47.014;7.652;2022-07-05T15:35:31;26.30;99.90
3752;DHT22;50827;47.014;7.652;2022-07-05T15:37:58;26.40;99.90
3752;DHT22;50827;47.014;7.652;2022-07-05T15:40:26;26.50;99.90
3752;DHT22;50827;47.014;7.652;2022-07-05T15:42:53;26.60;99.90
3752;DHT22;50827;47.014;7.652;2022-07-05T15:45:20;26.60;99.90
3752;DHT22;50827;47.014;7.652;2022-07-05T15:47:47;26.70;99.90
3752;DHT22;50827;47.014;7.652;2022-07-05T15:50:13;26.70;99.90
3752;DHT22;50827;47.014;7.652;2022-07-05T15:52:40;26.70;99.90
3752;DHT22;50827;47.014;7.652;2022-07-05T15:55:09;26.70;99.90
3752;DHT22;50827;47.014;7.652;2022-07-05T15:57:36;26.70;99.90
3752;DHT22;50827;47.014;7.652;2022-07-05T16:00:03;26.80;99.90
3752;DHT22;50827;47.014;7.652;2022-07-05T16:02:30;26.80;99.90
3752;DHT22;50827;47.014;7.652;2022-07-05T16:04:57;26.70;99.90
3752;DHT22;50827;47.014;7.652;2022-07-05T16:07:24;26.70;99.90
3752;DHT22;50827;47.014;7.652;2022-07-05T16:09:51;26.80;99.90
3752;DHT22;50827;47.014;7.652;2022-07-05T16:12:39;26.80;99.90
3752;DHT22;50827;47.014;7.652;2022-07-05T16:15:06;26.70;99.90
3752;DHT22;50827;47.014;7.652;2022-07-05T16:17:33;26.60;99.90